createdAt,value
2022-12-31T00:01:01.439Z,12.60
2022-12-31T00:05:11.157Z,12.60
2022-12-31T00:09:19.787Z,12.80
2022-12-31T00:13:28.319Z,12.80
2022-12-31T00:17:36.865Z,12.70
2022-12-31T00:21:45.673Z,12.70
2022-12-31T00:25:54.228Z,12.70
2022-12-31T00:30:04.952Z,12.70
2022-12-31T00:34:13.192Z,12.60
2022-12-31T00:38:21.767Z,12.70
2022-12-31T00:42:30.450Z,12.60
2022-12-31T00:50:47.067Z,12.70
2022-12-31T00:54:57.314Z,12.60
2022-12-31T00:59:08.989Z,12.60
2022-12-31T01:03:17.606Z,12.60
2022-12-31T01:07:26.322Z,12.60
2022-12-31T01:11:35.152Z,12.60
2022-12-31T01:15:43.817Z,12.60
2022-12-31T01:19:52.466Z,12.60
2022-12-31T01:24:01.200Z,12.50
2022-12-31T01:28:11.614Z,12.50
2022-12-31T01:32:20.249Z,12.60
2022-12-31T01:36:32.085Z,12.60
2022-12-31T01:40:41.572Z,12.80
2022-12-31T01:44:57.140Z,12.90
2022-12-31T01:49:30.974Z,13.00
2022-12-31T01:53:40.997Z,13.10
2022-12-31T01:57:52.487Z,13.20
2022-12-31T02:02:02.106Z,13.30
2022-12-31T02:06:14.020Z,13.40
2022-12-31T02:10:22.649Z,13.50
2022-12-31T02:14:52.082Z,13.60
2022-12-31T02:19:20.242Z,13.80
2022-12-31T02:23:40.474Z,13.80
2022-12-31T02:32:47.713Z,13.90
2022-12-31T02:36:59.615Z,13.90
2022-12-31T02:41:17.845Z,13.90
2022-12-31T02:45:32.614Z,14.10
2022-12-31T02:49:46.849Z,14.20
2022-12-31T02:53:58.480Z,14.20
2022-12-31T02:58:37.338Z,14.30
2022-12-31T03:02:48.326Z,14.30
2022-12-31T03:06:57.072Z,14.40
2022-12-31T03:11:07.390Z,14.30
2022-12-31T03:15:22.213Z,14.50
2022-12-31T03:19:48.424Z,14.30
2022-12-31T03:24:14.912Z,14.40
2022-12-31T03:28:26.456Z,14.40
2022-12-31T03:32:34.927Z,14.30
2022-12-31T03:36:43.535Z,14.30
2022-12-31T03:40:54.079Z,14.20
2022-12-31T03:45:03.380Z,14.20
2022-12-31T03:49:11.932Z,14.00
2022-12-31T03:53:42.804Z,13.80
2022-12-31T03:57:51.440Z,13.80
2022-12-31T04:01:59.988Z,13.70
2022-12-31T04:06:10.061Z,13.70
2022-12-31T04:10:19.824Z,13.70
2022-12-31T04:14:28.422Z,13.70
2022-12-31T04:18:37.033Z,13.70
2022-12-31T04:22:45.570Z,13.80
2022-12-31T04:26:54.066Z,13.80
2022-12-31T04:31:04.101Z,13.90
2022-12-31T04:35:12.736Z,13.90
2022-12-31T04:39:21.411Z,13.90
2022-12-31T04:43:30.061Z,14.00
2022-12-31T04:47:38.637Z,14.10
2022-12-31T04:51:47.226Z,14.20
2022-12-31T04:55:55.964Z,14.20
2022-12-31T05:00:05.270Z,14.40
2022-12-31T05:04:13.914Z,14.60
2022-12-31T05:08:22.630Z,14.60
2022-12-31T05:12:31.338Z,14.70
2022-12-31T05:16:40.074Z,14.80
2022-12-31T05:20:49.123Z,14.90
2022-12-31T05:24:59.799Z,14.80
2022-12-31T05:29:08.541Z,14.80
2022-12-31T05:33:18.101Z,15.00
2022-12-31T05:37:28.576Z,15.10
2022-12-31T05:41:37.188Z,15.10
2022-12-31T05:45:45.804Z,15.00
2022-12-31T05:49:54.438Z,15.20
2022-12-31T05:54:03.005Z,15.30
2022-12-31T05:58:11.553Z,15.60
2022-12-31T06:02:23.125Z,15.50
2022-12-31T06:06:31.633Z,15.50
2022-12-31T06:10:41.230Z,15.50
2022-12-31T06:14:49.781Z,15.40
2022-12-31T06:18:58.448Z,15.30
2022-12-31T06:23:07.463Z,15.30
2022-12-31T06:27:16.096Z,15.30
2022-12-31T06:31:24.778Z,15.50
2022-12-31T06:35:33.489Z,15.30
2022-12-31T06:39:42.031Z,15.30
2022-12-31T06:43:50.713Z,15.50
2022-12-31T06:47:59.306Z,15.40
2022-12-31T06:52:08.387Z,15.30
2022-12-31T06:56:33.144Z,15.30
2022-12-31T07:00:37.111Z,15.40
2022-12-31T07:05:10.285Z,15.50
2022-12-31T07:09:25.083Z,15.60
2022-12-31T07:13:53.381Z,15.50
2022-12-31T07:18:10.916Z,15.60
2022-12-31T07:22:38.877Z,15.60
2022-12-31T07:27:06.980Z,15.60
2022-12-31T07:31:36.513Z,15.70
2022-12-31T07:36:10.315Z,15.60
2022-12-31T07:40:39.697Z,15.80
2022-12-31T07:45:10.598Z,15.70
2022-12-31T07:49:19.375Z,15.70
2022-12-31T07:53:28.707Z,15.60
2022-12-31T07:57:45.994Z,15.70
2022-12-31T08:02:04.124Z,15.60
2022-12-31T08:06:19.326Z,15.50
2022-12-31T08:10:49.356Z,15.50
2022-12-31T08:14:58.179Z,15.70
2022-12-31T08:19:07.197Z,15.60
2022-12-31T08:23:21.695Z,15.60
2022-12-31T08:27:55.819Z,15.90
2022-12-31T08:32:15.909Z,15.90
2022-12-31T08:36:33.454Z,15.90
2022-12-31T08:41:19.561Z,16.10
2022-12-31T08:45:39.980Z,16.10
2022-12-31T08:49:48.824Z,16.00
2022-12-31T08:53:57.896Z,15.90
2022-12-31T08:58:11.501Z,15.80
2022-12-31T09:02:37.585Z,15.80
2022-12-31T09:06:49.221Z,15.80
2022-12-31T09:11:22.790Z,15.90
2022-12-31T09:15:43.851Z,15.90
2022-12-31T09:19:55.795Z,15.90
2022-12-31T09:24:25.378Z,16.00
2022-12-31T09:28:52.140Z,16.00
2022-12-31T09:33:09.983Z,16.00
2022-12-31T09:37:27.621Z,16.00
2022-12-31T09:41:51.020Z,16.00
2022-12-31T09:46:05.625Z,16.10
2022-12-31T09:50:23.483Z,16.10
2022-12-31T09:54:50.161Z,16.10
2022-12-31T09:59:07.598Z,16.10
2022-12-31T10:03:40.706Z,16.00
2022-12-31T10:08:26.090Z,16.10
2022-12-31T10:17:28.091Z,16.20
2022-12-31T10:21:48.629Z,16.10
2022-12-31T10:26:21.054Z,16.10
2022-12-31T10:30:32.748Z,16.20
2022-12-31T10:35:02.506Z,16.30
2022-12-31T10:39:30.449Z,16.10
2022-12-31T10:44:06.071Z,15.90
2022-12-31T10:48:26.957Z,15.70
2022-12-31T10:52:42.193Z,15.70
2022-12-31T10:57:15.051Z,15.80
2022-12-31T11:01:36.649Z,15.90
2022-12-31T11:06:09.946Z,16.10
2022-12-31T11:10:24.321Z,16.10
2022-12-31T11:15:25.035Z,16.10
2022-12-31T11:19:36.669Z,16.10
2022-12-31T11:23:51.014Z,16.10
2022-12-31T11:28:11.195Z,16.10
2022-12-31T11:32:22.821Z,16.10
2022-12-31T11:36:57.591Z,16.10
2022-12-31T11:41:09.903Z,16.20
2022-12-31T11:45:40.797Z,16.20
2022-12-31T11:50:15.314Z,16.20
2022-12-31T11:54:45.421Z,16.30
2022-12-31T11:58:56.164Z,16.40
2022-12-31T12:03:08.050Z,16.30
2022-12-31T12:07:18.388Z,16.20
2022-12-31T12:15:51.510Z,16.20
2022-12-31T12:20:06.058Z,16.20
2022-12-31T12:24:23.753Z,16.20
2022-12-31T12:28:44.317Z,16.20
2022-12-31T12:33:13.495Z,16.10
2022-12-31T12:37:34.353Z,16.00
2022-12-31T12:41:42.898Z,15.80
2022-12-31T12:45:52.718Z,15.70
2022-12-31T12:50:01.844Z,15.80
2022-12-31T12:54:13.614Z,15.80
2022-12-31T12:58:40.017Z,15.70
2022-12-31T13:03:24.956Z,15.70
2022-12-31T13:08:06.715Z,15.70
2022-12-31T13:13:05.315Z,15.70
2022-12-31T13:16:56.386Z,15.80
2022-12-31T13:21:23.217Z,15.90
2022-12-31T13:25:34.919Z,15.90
2022-12-31T13:29:45.558Z,16.00
2022-12-31T13:34:09.444Z,16.00
2022-12-31T13:38:24.059Z,16.10
2022-12-31T13:42:50.647Z,16.10
2022-12-31T13:47:13.963Z,16.10
2022-12-31T13:51:41.340Z,15.90
2022-12-31T13:55:57.881Z,15.80
2022-12-31T14:00:21.689Z,15.80
2022-12-31T14:04:33.462Z,15.70
2022-12-31T14:08:42.175Z,15.70
2022-12-31T14:13:04.453Z,15.80
2022-12-31T14:17:31.072Z,15.90
2022-12-31T14:21:54.447Z,15.80
2022-12-31T14:26:06.250Z,15.80
2022-12-31T14:30:23.491Z,15.80
2022-12-31T14:35:00.700Z,15.80
2022-12-31T14:39:12.380Z,15.70
2022-12-31T14:43:36.058Z,15.70
2022-12-31T14:47:56.492Z,15.70
2022-12-31T14:52:26.429Z,15.70
2022-12-31T14:56:54.481Z,15.70
2022-12-31T15:01:10.096Z,15.70
2022-12-31T15:05:21.762Z,15.70
2022-12-31T15:09:42.335Z,15.70
2022-12-31T15:13:56.906Z,15.60
2022-12-31T15:18:26.296Z,15.60
2022-12-31T15:22:49.871Z,15.40
2022-12-31T15:27:06.881Z,15.30
2022-12-31T15:31:20.964Z,15.20
2022-12-31T15:35:35.675Z,15.40
2022-12-31T15:39:45.044Z,15.30
2022-12-31T15:43:56.744Z,15.20
2022-12-31T15:48:08.446Z,15.20
2022-12-31T15:52:44.003Z,15.20
2022-12-31T15:56:54.400Z,15.10
2022-12-31T16:01:30.097Z,15.10
2022-12-31T16:05:39.013Z,15.00
2022-12-31T16:09:59.612Z,14.90
2022-12-31T16:14:08.456Z,14.90
2022-12-31T16:18:22.792Z,15.00
2022-12-31T16:22:30.535Z,14.90
2022-12-31T16:27:00.004Z,14.80
2022-12-31T16:31:11.524Z,14.80
2022-12-31T16:35:26.074Z,14.90
2022-12-31T16:39:36.464Z,14.80
2022-12-31T16:43:46.258Z,14.80
2022-12-31T16:47:59.587Z,14.80
2022-12-31T16:52:26.084Z,14.90
2022-12-31T16:56:37.432Z,14.90
2022-12-31T17:00:47.599Z,15.00
2022-12-31T17:04:56.986Z,15.00
2022-12-31T17:09:19.105Z,15.00
2022-12-31T17:13:34.206Z,14.90
2022-12-31T17:17:43.056Z,14.90
2022-12-31T17:21:51.619Z,14.90
2022-12-31T17:26:03.164Z,14.90
2022-12-31T17:30:34.362Z,14.90
2022-12-31T17:35:02.723Z,14.90
2022-12-31T17:39:23.265Z,14.90
2022-12-31T17:43:35.306Z,14.80
2022-12-31T17:47:50.924Z,14.80
2022-12-31T17:51:59.560Z,14.80
2022-12-31T17:56:12.146Z,14.90
2022-12-31T18:00:23.920Z,14.80
2022-12-31T18:04:32.493Z,14.80
2022-12-31T18:08:41.336Z,14.90
2022-12-31T18:12:50.405Z,14.80
2022-12-31T18:16:58.977Z,14.70
2022-12-31T18:21:20.237Z,14.70
2022-12-31T18:25:48.087Z,14.60
2022-12-31T18:30:02.277Z,14.70
2022-12-31T18:34:07.115Z,14.60
2022-12-31T18:38:35.107Z,14.60
2022-12-31T18:42:44.313Z,14.60
2022-12-31T18:46:53.061Z,14.60
2022-12-31T18:51:29.348Z,14.50
2022-12-31T18:55:39.706Z,14.60
2022-12-31T19:00:07.991Z,14.50
2022-12-31T19:04:26.654Z,14.50
2022-12-31T19:08:31.345Z,14.50
2022-12-31T19:12:39.920Z,14.50
2022-12-31T19:16:49.787Z,14.50
2022-12-31T19:20:58.412Z,14.60
2022-12-31T19:25:10.159Z,14.60
2022-12-31T19:29:21.612Z,14.60
2022-12-31T19:33:30.090Z,14.60
2022-12-31T19:37:38.625Z,14.50
2022-12-31T19:41:51.703Z,14.60
2022-12-31T19:45:58.470Z,14.60
2022-12-31T19:50:07.859Z,14.60
2022-12-31T19:54:16.560Z,14.60
2022-12-31T19:58:27.027Z,14.70
2022-12-31T20:02:36.197Z,14.80
2022-12-31T20:06:44.918Z,14.80
2022-12-31T20:10:53.730Z,15.00
2022-12-31T20:15:02.259Z,14.90
2022-12-31T20:19:11.397Z,15.00
2022-12-31T20:23:20.181Z,15.00
2022-12-31T20:27:28.868Z,15.00
2022-12-31T20:31:37.385Z,15.10
2022-12-31T20:35:46.028Z,15.20
2022-12-31T20:39:54.642Z,15.30
2022-12-31T20:44:03.181Z,15.30
2022-12-31T20:48:11.800Z,15.40
2022-12-31T20:52:20.425Z,15.40
2022-12-31T20:56:31.631Z,15.40
2022-12-31T21:00:42.600Z,15.40
2022-12-31T21:04:51.260Z,15.30
2022-12-31T21:09:01.735Z,15.20
2022-12-31T21:13:10.417Z,15.20
2022-12-31T21:17:19.057Z,15.30
2022-12-31T21:21:27.631Z,15.40
2022-12-31T21:25:36.194Z,15.40
2022-12-31T21:30:16.501Z,15.30
2022-12-31T21:33:56.140Z,15.30
2022-12-31T21:38:06.142Z,15.30
2022-12-31T21:42:15.129Z,15.30
2022-12-31T21:46:23.830Z,15.30
2022-12-31T21:50:52.787Z,15.40
2022-12-31T21:55:19.934Z,15.40
2022-12-31T22:00:09.128Z,15.30
2022-12-31T22:03:59.616Z,15.50
2022-12-31T22:08:08.258Z,15.60
2022-12-31T22:12:16.872Z,15.50
2022-12-31T22:16:25.526Z,15.40
2022-12-31T22:20:34.139Z,15.50
2022-12-31T22:24:42.760Z,15.60
2022-12-31T22:28:52.444Z,15.50
2022-12-31T22:33:01.642Z,15.50
2022-12-31T22:37:35.813Z,15.40
2022-12-31T22:41:22.725Z,15.50
2022-12-31T22:45:31.332Z,15.60
2022-12-31T22:49:39.843Z,15.50
2022-12-31T22:53:48.546Z,15.50
2022-12-31T22:57:57.109Z,15.60
2022-12-31T23:02:05.661Z,15.60
2022-12-31T23:06:35.361Z,15.60
2022-12-31T23:11:03.626Z,15.50
2022-12-31T23:15:30.302Z,15.60
2022-12-31T23:19:57.181Z,15.50
2022-12-31T23:24:11.676Z,15.60
2022-12-31T23:28:25.859Z,15.60
2022-12-31T23:32:34.512Z,15.70
2022-12-31T23:36:43.591Z,15.70
2022-12-31T23:40:52.152Z,15.80
2022-12-31T23:45:00.810Z,15.70
2022-12-31T23:49:09.435Z,15.60
2022-12-31T23:53:40.256Z,15.70
2022-12-31T23:57:48.922Z,15.80
